sensor_id;sensor_type;location;lat;lon;timestamp;P1;durP1;ratioP1;P2;durP2;ratioP2
71265;SDS011;59030;52.052;8.550;2023-05-15T00:01:18;5.63;;;5.10;;
71265;SDS011;59030;52.052;8.550;2023-05-15T00:03:48;5.50;;;5.00;;
71265;SDS011;59030;52.052;8.550;2023-05-15T00:06:20;5.63;;;5.13;;
71265;SDS011;59030;52.052;8.550;2023-05-15T00:08:53;5.33;;;4.83;;
71265;SDS011;59030;52.052;8.550;2023-05-15T00:11:26;5.53;;;4.90;;
71265;SDS011;59030;52.052;8.550;2023-05-15T00:13:58;4.80;;;4.30;;
71265;SDS011;59030;52.052;8.550;2023-05-15T00:16:26;5.83;;;5.10;;
71265;SDS011;59030;52.052;8.550;2023-05-15T00:18:56;5.80;;;5.20;;
71265;SDS011;59030;52.052;8.550;2023-05-15T00:21:29;6.53;;;4.90;;
71265;SDS011;59030;52.052;8.550;2023-05-15T00:23:58;6.37;;;5.37;;
71265;SDS011;59030;52.052;8.550;2023-05-15T00:26:27;7.20;;;5.17;;
71265;SDS011;59030;52.052;8.550;2023-05-15T00:28:55;6.47;;;5.40;;
71265;SDS011;59030;52.052;8.550;2023-05-15T00:31:25;6.80;;;5.13;;
71265;SDS011;59030;52.052;8.550;2023-05-15T00:34:01;6.80;;;5.30;;
71265;SDS011;59030;52.052;8.550;2023-05-15T00:36:35;5.90;;;5.40;;
71265;SDS011;59030;52.052;8.550;2023-05-15T00:39:03;6.03;;;5.27;;
71265;SDS011;59030;52.052;8.550;2023-05-15T00:41:46;6.30;;;4.90;;
71265;SDS011;59030;52.052;8.550;2023-05-15T00:44:24;6.10;;;5.17;;
71265;SDS011;59030;52.052;8.550;2023-05-15T00:46:59;7.23;;;5.23;;
71265;SDS011;59030;52.052;8.550;2023-05-15T00:52:22;6.03;;;5.37;;
71265;SDS011;59030;52.052;8.550;2023-05-15T00:54:50;6.63;;;5.60;;
71265;SDS011;59030;52.052;8.550;2023-05-15T00:57:20;5.83;;;5.23;;
71265;SDS011;59030;52.052;8.550;2023-05-15T00:59:54;6.63;;;5.07;;
71265;SDS011;59030;52.052;8.550;2023-05-15T01:02:23;6.33;;;5.60;;
71265;SDS011;59030;52.052;8.550;2023-05-15T01:04:57;6.10;;;5.43;;
71265;SDS011;59030;52.052;8.550;2023-05-15T01:07:54;6.57;;;5.13;;
71265;SDS011;59030;52.052;8.550;2023-05-15T01:10:41;5.87;;;5.27;;
71265;SDS011;59030;52.052;8.550;2023-05-15T01:16:27;5.67;;;5.03;;
71265;SDS011;59030;52.052;8.550;2023-05-15T01:18:55;6.63;;;5.23;;
71265;SDS011;59030;52.052;8.550;2023-05-15T01:21:31;7.70;;;5.40;;
71265;SDS011;59030;52.052;8.550;2023-05-15T01:24:03;6.63;;;5.27;;
71265;SDS011;59030;52.052;8.550;2023-05-15T01:29:33;6.23;;;5.63;;
71265;SDS011;59030;52.052;8.550;2023-05-15T01:32:06;6.63;;;5.67;;
71265;SDS011;59030;52.052;8.550;2023-05-15T01:34:41;5.93;;;5.33;;
71265;SDS011;59030;52.052;8.550;2023-05-15T01:37:11;6.03;;;5.30;;
71265;SDS011;59030;52.052;8.550;2023-05-15T01:39:41;6.33;;;5.63;;
71265;SDS011;59030;52.052;8.550;2023-05-15T01:42:12;6.97;;;6.00;;
71265;SDS011;59030;52.052;8.550;2023-05-15T01:44:54;8.53;;;5.80;;
71265;SDS011;59030;52.052;8.550;2023-05-15T01:47:25;7.03;;;5.50;;
71265;SDS011;59030;52.052;8.550;2023-05-15T01:50:06;6.27;;;5.67;;
71265;SDS011;59030;52.052;8.550;2023-05-15T01:52:41;6.10;;;5.50;;
71265;SDS011;59030;52.052;8.550;2023-05-15T01:58:00;6.13;;;5.53;;
71265;SDS011;59030;52.052;8.550;2023-05-15T02:00:30;6.83;;;6.07;;
71265;SDS011;59030;52.052;8.550;2023-05-15T02:02:59;7.03;;;5.80;;
71265;SDS011;59030;52.052;8.550;2023-05-15T02:05:35;6.10;;;5.50;;
71265;SDS011;59030;52.052;8.550;2023-05-15T02:08:05;6.17;;;5.53;;
71265;SDS011;59030;52.052;8.550;2023-05-15T02:10:38;6.23;;;5.50;;
71265;SDS011;59030;52.052;8.550;2023-05-15T02:13:06;7.40;;;6.13;;
71265;SDS011;59030;52.052;8.550;2023-05-15T02:15:36;6.60;;;5.90;;
71265;SDS011;59030;52.052;8.550;2023-05-15T02:18:04;6.93;;;6.10;;
71265;SDS011;59030;52.052;8.550;2023-05-15T02:20:33;6.97;;;5.80;;
71265;SDS011;59030;52.052;8.550;2023-05-15T02:23:07;7.20;;;6.20;;
71265;SDS011;59030;52.052;8.550;2023-05-15T02:25:33;8.97;;;6.17;;
71265;SDS011;59030;52.052;8.550;2023-05-15T02:28:01;8.20;;;6.10;;
71265;SDS011;59030;52.052;8.550;2023-05-15T02:30:33;6.80;;;6.10;;
71265;SDS011;59030;52.052;8.550;2023-05-15T02:33:06;10.13;;;6.27;;
71265;SDS011;59030;52.052;8.550;2023-05-15T02:35:35;8.23;;;6.00;;
71265;SDS011;59030;52.052;8.550;2023-05-15T02:38:15;14.77;;;6.33;;
71265;SDS011;59030;52.052;8.550;2023-05-15T02:40:50;8.10;;;6.30;;
71265;SDS011;59030;52.052;8.550;2023-05-15T02:43:19;7.23;;;6.53;;
71265;SDS011;59030;52.052;8.550;2023-05-15T02:45:47;7.87;;;7.07;;
71265;SDS011;59030;52.052;8.550;2023-05-15T02:48:15;7.17;;;6.47;;
71265;SDS011;59030;52.052;8.550;2023-05-15T02:50:48;7.70;;;6.93;;
71265;SDS011;59030;52.052;8.550;2023-05-15T02:53:15;10.03;;;7.33;;
71265;SDS011;59030;52.052;8.550;2023-05-15T02:55:43;8.47;;;6.93;;
71265;SDS011;59030;52.052;8.550;2023-05-15T02:58:11;8.57;;;7.30;;
71265;SDS011;59030;52.052;8.550;2023-05-15T03:00:39;7.57;;;6.77;;
71265;SDS011;59030;52.052;8.550;2023-05-15T03:03:07;9.40;;;6.53;;
71265;SDS011;59030;52.052;8.550;2023-05-15T03:05:34;7.73;;;6.70;;
71265;SDS011;59030;52.052;8.550;2023-05-15T03:08:02;7.13;;;6.43;;
71265;SDS011;59030;52.052;8.550;2023-05-15T03:10:30;7.80;;;6.03;;
71265;SDS011;59030;52.052;8.550;2023-05-15T03:12:58;7.43;;;6.23;;
71265;SDS011;59030;52.052;8.550;2023-05-15T03:15:29;6.73;;;5.73;;
71265;SDS011;59030;52.052;8.550;2023-05-15T03:18:02;7.13;;;5.97;;
71265;SDS011;59030;52.052;8.550;2023-05-15T03:20:33;5.83;;;5.23;;
71265;SDS011;59030;52.052;8.550;2023-05-15T03:23:01;7.03;;;6.00;;
71265;SDS011;59030;52.052;8.550;2023-05-15T03:25:28;9.00;;;6.10;;
71265;SDS011;59030;52.052;8.550;2023-05-15T03:27:59;6.37;;;5.77;;
71265;SDS011;59030;52.052;8.550;2023-05-15T03:30:28;6.77;;;6.07;;
71265;SDS011;59030;52.052;8.550;2023-05-15T03:32:59;7.60;;;5.90;;
71265;SDS011;59030;52.052;8.550;2023-05-15T03:35:29;9.47;;;5.90;;
71265;SDS011;59030;52.052;8.550;2023-05-15T03:38:00;6.83;;;5.87;;
71265;SDS011;59030;52.052;8.550;2023-05-15T03:40:28;6.20;;;5.60;;
71265;SDS011;59030;52.052;8.550;2023-05-15T03:42:56;7.63;;;6.20;;
71265;SDS011;59030;52.052;8.550;2023-05-15T03:45:26;7.00;;;6.30;;
71265;SDS011;59030;52.052;8.550;2023-05-15T03:47:57;6.40;;;5.80;;
71265;SDS011;59030;52.052;8.550;2023-05-15T03:50:25;6.20;;;5.60;;
71265;SDS011;59030;52.052;8.550;2023-05-15T03:52:56;6.67;;;5.97;;
71265;SDS011;59030;52.052;8.550;2023-05-15T03:55:23;7.17;;;6.40;;
71265;SDS011;59030;52.052;8.550;2023-05-15T03:57:51;7.20;;;6.27;;
71265;SDS011;59030;52.052;8.550;2023-05-15T04:00:19;8.10;;;6.20;;
71265;SDS011;59030;52.052;8.550;2023-05-15T04:02:48;7.63;;;6.00;;
71265;SDS011;59030;52.052;8.550;2023-05-15T04:05:18;8.57;;;6.10;;
71265;SDS011;59030;52.052;8.550;2023-05-15T04:07:46;6.77;;;6.10;;
71265;SDS011;59030;52.052;8.550;2023-05-15T04:10:23;8.63;;;6.37;;
71265;SDS011;59030;52.052;8.550;2023-05-15T04:12:55;7.00;;;6.27;;
71265;SDS011;59030;52.052;8.550;2023-05-15T04:15:37;7.73;;;6.30;;
71265;SDS011;59030;52.052;8.550;2023-05-15T04:18:01;7.13;;;6.17;;
71265;SDS011;59030;52.052;8.550;2023-05-15T04:20:42;6.50;;;5.90;;
71265;SDS011;59030;52.052;8.550;2023-05-15T04:55:09;7.43;;;6.47;;
71265;SDS011;59030;52.052;8.550;2023-05-15T04:57:44;7.47;;;6.50;;
71265;SDS011;59030;52.052;8.550;2023-05-15T05:22:15;8.73;;;6.47;;
71265;SDS011;59030;52.052;8.550;2023-05-15T05:24:44;8.40;;;6.87;;
71265;SDS011;59030;52.052;8.550;2023-05-15T05:27:12;7.80;;;6.37;;
71265;SDS011;59030;52.052;8.550;2023-05-15T05:29:39;7.37;;;6.33;;
71265;SDS011;59030;52.052;8.550;2023-05-15T05:32:07;7.50;;;6.53;;
71265;SDS011;59030;52.052;8.550;2023-05-15T05:34:34;12.67;;;7.07;;
71265;SDS011;59030;52.052;8.550;2023-05-15T09:03:02;13.60;;;10.73;;
71265;SDS011;59030;52.052;8.550;2023-05-15T09:05:30;15.23;;;10.30;;
71265;SDS011;59030;52.052;8.550;2023-05-15T09:07:57;15.43;;;11.03;;
71265;SDS011;59030;52.052;8.550;2023-05-15T09:10:27;13.10;;;11.13;;
71265;SDS011;59030;52.052;8.550;2023-05-15T09:12:54;15.40;;;11.37;;
71265;SDS011;59030;52.052;8.550;2023-05-15T09:41:50;22.63;;;12.93;;
71265;SDS011;59030;52.052;8.550;2023-05-15T09:44:18;17.37;;;13.23;;
71265;SDS011;59030;52.052;8.550;2023-05-15T09:46:46;18.50;;;13.63;;
71265;SDS011;59030;52.052;8.550;2023-05-15T09:49:14;19.50;;;13.33;;
71265;SDS011;59030;52.052;8.550;2023-05-15T09:51:43;21.90;;;15.03;;
71265;SDS011;59030;52.052;8.550;2023-05-15T09:54:14;20.27;;;15.23;;
71265;SDS011;59030;52.052;8.550;2023-05-15T09:56:42;17.97;;;13.97;;
71265;SDS011;59030;52.052;8.550;2023-05-15T10:33:22;5.57;;;4.70;;
71265;SDS011;59030;52.052;8.550;2023-05-15T10:35:50;6.60;;;4.97;;
71265;SDS011;59030;52.052;8.550;2023-05-15T10:38:21;6.23;;;5.40;;
71265;SDS011;59030;52.052;8.550;2023-05-15T10:40:49;10.00;;;7.50;;
71265;SDS011;59030;52.052;8.550;2023-05-15T10:43:23;7.40;;;6.50;;
71265;SDS011;59030;52.052;8.550;2023-05-15T10:59:06;12.10;;;9.10;;
71265;SDS011;59030;52.052;8.550;2023-05-15T11:01:36;14.33;;;10.97;;
71265;SDS011;59030;52.052;8.550;2023-05-15T11:04:05;12.47;;;9.60;;
71265;SDS011;59030;52.052;8.550;2023-05-15T11:06:32;14.03;;;10.60;;
71265;SDS011;59030;52.052;8.550;2023-05-15T11:11:55;11.13;;;9.07;;
71265;SDS011;59030;52.052;8.550;2023-05-15T11:53:45;19.00;;;14.63;;
71265;SDS011;59030;52.052;8.550;2023-05-15T11:56:19;19.40;;;14.03;;
71265;SDS011;59030;52.052;8.550;2023-05-15T11:58:48;18.60;;;14.60;;
71265;SDS011;59030;52.052;8.550;2023-05-15T12:01:15;18.10;;;14.00;;
71265;SDS011;59030;52.052;8.550;2023-05-15T12:16:59;15.10;;;11.07;;
71265;SDS011;59030;52.052;8.550;2023-05-15T12:53:43;10.97;;;7.27;;
71265;SDS011;59030;52.052;8.550;2023-05-15T12:56:15;9.33;;;6.90;;
71265;SDS011;59030;52.052;8.550;2023-05-15T12:58:44;8.80;;;6.93;;
71265;SDS011;59030;52.052;8.550;2023-05-15T13:01:15;9.90;;;7.57;;
71265;SDS011;59030;52.052;8.550;2023-05-15T13:03:45;8.53;;;7.23;;
71265;SDS011;59030;52.052;8.550;2023-05-15T14:52:54;8.90;;;7.28;;
71265;SDS011;59030;52.052;8.550;2023-05-15T14:55:21;9.33;;;7.80;;
71265;SDS011;59030;52.052;8.550;2023-05-15T14:57:49;11.63;;;7.70;;
71265;SDS011;59030;52.052;8.550;2023-05-15T15:00:16;12.47;;;7.87;;
71265;SDS011;59030;52.052;8.550;2023-05-15T15:02:44;10.73;;;8.10;;
71265;SDS011;59030;52.052;8.550;2023-05-15T15:05:11;12.60;;;8.83;;
71265;SDS011;59030;52.052;8.550;2023-05-15T15:23:41;6.65;;;6.05;;
71265;SDS011;59030;52.052;8.550;2023-05-15T15:26:11;7.25;;;5.90;;
71265;SDS011;59030;52.052;8.550;2023-05-15T15:31:30;6.33;;;5.70;;
71265;SDS011;59030;52.052;8.550;2023-05-15T15:33:58;9.33;;;5.87;;
71265;SDS011;59030;52.052;8.550;2023-05-15T15:36:28;7.17;;;6.35;;
71265;SDS011;59030;52.052;8.550;2023-05-15T15:38:58;7.25;;;6.45;;
71265;SDS011;59030;52.052;8.550;2023-05-15T15:41:30;10.08;;;7.03;;
71265;SDS011;59030;52.052;8.550;2023-05-15T15:44:00;9.13;;;6.15;;
71265;SDS011;59030;52.052;8.550;2023-05-15T15:46:27;7.80;;;7.00;;
71265;SDS011;59030;52.052;8.550;2023-05-15T15:48:56;8.50;;;7.08;;
71265;SDS011;59030;52.052;8.550;2023-05-15T15:51:26;9.90;;;8.33;;
71265;SDS011;59030;52.052;8.550;2023-05-15T15:53:54;10.23;;;7.70;;
71265;SDS011;59030;52.052;8.550;2023-05-15T15:56:22;13.43;;;7.83;;
71265;SDS011;59030;52.052;8.550;2023-05-15T15:58:50;9.20;;;6.47;;
71265;SDS011;59030;52.052;8.550;2023-05-15T16:01:18;8.33;;;5.80;;
71265;SDS011;59030;52.052;8.550;2023-05-15T16:03:52;7.03;;;6.20;;
71265;SDS011;59030;52.052;8.550;2023-05-15T16:06:22;7.80;;;6.00;;
71265;SDS011;59030;52.052;8.550;2023-05-15T16:08:50;8.63;;;7.57;;
71265;SDS011;59030;52.052;8.550;2023-05-15T16:11:18;8.63;;;7.03;;
71265;SDS011;59030;52.052;8.550;2023-05-15T16:14:02;8.80;;;7.30;;
71265;SDS011;59030;52.052;8.550;2023-05-15T16:16:33;8.10;;;6.03;;
71265;SDS011;59030;52.052;8.550;2023-05-15T16:19:02;10.17;;;7.10;;
71265;SDS011;59030;52.052;8.550;2023-05-15T16:21:29;8.10;;;7.07;;
71265;SDS011;59030;52.052;8.550;2023-05-15T16:23:58;7.60;;;6.80;;
71265;SDS011;59030;52.052;8.550;2023-05-15T16:26:29;7.30;;;6.60;;
71265;SDS011;59030;52.052;8.550;2023-05-15T16:28:59;7.63;;;6.30;;
71265;SDS011;59030;52.052;8.550;2023-05-15T16:31:29;7.17;;;6.43;;
71265;SDS011;59030;52.052;8.550;2023-05-15T16:34:00;9.20;;;6.90;;
71265;SDS011;59030;52.052;8.550;2023-05-15T16:36:28;7.93;;;6.57;;
71265;SDS011;59030;52.052;8.550;2023-05-15T16:38:59;7.70;;;6.53;;
71265;SDS011;59030;52.052;8.550;2023-05-15T16:41:30;7.63;;;5.53;;
71265;SDS011;59030;52.052;8.550;2023-05-15T16:44:01;7.50;;;6.57;;
71265;SDS011;59030;52.052;8.550;2023-05-15T16:46:31;7.03;;;6.33;;
71265;SDS011;59030;52.052;8.550;2023-05-15T16:48:58;7.93;;;6.43;;
71265;SDS011;59030;52.052;8.550;2023-05-15T16:51:26;8.07;;;6.53;;
71265;SDS011;59030;52.052;8.550;2023-05-15T16:53:53;6.27;;;5.60;;
71265;SDS011;59030;52.052;8.550;2023-05-15T16:56:23;7.97;;;6.57;;
71265;SDS011;59030;52.052;8.550;2023-05-15T16:58:52;10.23;;;6.80;;
71265;SDS011;59030;52.052;8.550;2023-05-15T17:01:19;9.53;;;6.50;;
71265;SDS011;59030;52.052;8.550;2023-05-15T17:03:47;6.93;;;6.17;;
71265;SDS011;59030;52.052;8.550;2023-05-15T17:06:14;6.07;;;5.47;;
71265;SDS011;59030;52.052;8.550;2023-05-15T17:08:42;6.50;;;5.80;;
71265;SDS011;59030;52.052;8.550;2023-05-15T17:11:26;9.87;;;6.30;;
71265;SDS011;59030;52.052;8.550;2023-05-15T17:13:54;7.27;;;5.67;;
71265;SDS011;59030;52.052;8.550;2023-05-15T17:16:21;6.57;;;5.40;;
71265;SDS011;59030;52.052;8.550;2023-05-15T17:18:49;8.33;;;5.60;;
71265;SDS011;59030;52.052;8.550;2023-05-15T17:21:17;6.87;;;5.50;;
71265;SDS011;59030;52.052;8.550;2023-05-15T17:23:44;6.40;;;5.80;;
71265;SDS011;59030;52.052;8.550;2023-05-15T17:26:12;8.37;;;5.70;;
71265;SDS011;59030;52.052;8.550;2023-05-15T17:28:40;6.57;;;5.60;;
71265;SDS011;59030;52.052;8.550;2023-05-15T17:31:07;6.20;;;5.60;;
71265;SDS011;59030;52.052;8.550;2023-05-15T17:33:35;7.30;;;5.70;;
71265;SDS011;59030;52.052;8.550;2023-05-15T17:36:03;7.83;;;6.27;;
71265;SDS011;59030;52.052;8.550;2023-05-15T17:38:31;6.73;;;6.00;;
71265;SDS011;59030;52.052;8.550;2023-05-15T17:40:58;10.60;;;6.20;;
71265;SDS011;59030;52.052;8.550;2023-05-15T17:43:32;7.50;;;6.70;;
71265;SDS011;59030;52.052;8.550;2023-05-15T17:45:59;9.40;;;6.70;;
71265;SDS011;59030;52.052;8.550;2023-05-15T17:48:27;7.70;;;6.27;;
71265;SDS011;59030;52.052;8.550;2023-05-15T17:50:59;8.03;;;7.13;;
71265;SDS011;59030;52.052;8.550;2023-05-15T17:53:27;8.67;;;7.23;;
71265;SDS011;59030;52.052;8.550;2023-05-15T17:55:55;10.50;;;7.80;;
71265;SDS011;59030;52.052;8.550;2023-05-15T17:58:24;10.20;;;8.00;;
71265;SDS011;59030;52.052;8.550;2023-05-15T18:00:56;9.10;;;7.23;;
71265;SDS011;59030;52.052;8.550;2023-05-15T18:06:26;8.90;;;6.90;;
71265;SDS011;59030;52.052;8.550;2023-05-15T18:08:55;12.00;;;8.03;;
71265;SDS011;59030;52.052;8.550;2023-05-15T18:11:23;11.40;;;7.87;;
71265;SDS011;59030;52.052;8.550;2023-05-15T18:13:59;9.90;;;7.43;;
71265;SDS011;59030;52.052;8.550;2023-05-15T18:16:34;9.63;;;8.00;;
71265;SDS011;59030;52.052;8.550;2023-05-15T18:19:02;8.83;;;7.40;;
71265;SDS011;59030;52.052;8.550;2023-05-15T18:21:29;9.73;;;7.33;;
71265;SDS011;59030;52.052;8.550;2023-05-15T18:23:57;11.87;;;7.53;;
71265;SDS011;59030;52.052;8.550;2023-05-15T18:26:27;10.47;;;7.77;;
71265;SDS011;59030;52.052;8.550;2023-05-15T18:28:56;8.73;;;7.53;;
71265;SDS011;59030;52.052;8.550;2023-05-15T18:31:24;7.27;;;6.20;;
71265;SDS011;59030;52.052;8.550;2023-05-15T18:33:59;7.83;;;5.67;;
71265;SDS011;59030;52.052;8.550;2023-05-15T18:36:29;5.80;;;5.20;;
71265;SDS011;59030;52.052;8.550;2023-05-15T18:39:00;5.47;;;4.77;;
71265;SDS011;59030;52.052;8.550;2023-05-15T18:41:31;6.87;;;4.80;;
71265;SDS011;59030;52.052;8.550;2023-05-15T18:44:05;6.80;;;4.83;;
71265;SDS011;59030;52.052;8.550;2023-05-15T18:46:34;5.57;;;4.27;;
71265;SDS011;59030;52.052;8.550;2023-05-15T18:49:02;6.73;;;3.70;;
71265;SDS011;59030;52.052;8.550;2023-05-15T18:51:30;8.47;;;3.70;;
71265;SDS011;59030;52.052;8.550;2023-05-15T18:54:00;4.03;;;3.00;;
71265;SDS011;59030;52.052;8.550;2023-05-15T18:56:28;8.77;;;3.17;;
71265;SDS011;59030;52.052;8.550;2023-05-15T18:58:56;4.80;;;3.67;;
71265;SDS011;59030;52.052;8.550;2023-05-15T19:01:27;6.57;;;4.57;;
71265;SDS011;59030;52.052;8.550;2023-05-15T19:03:55;7.23;;;5.23;;
71265;SDS011;59030;52.052;8.550;2023-05-15T19:06:30;8.03;;;5.77;;
71265;SDS011;59030;52.052;8.550;2023-05-15T19:08:58;9.17;;;6.80;;
71265;SDS011;59030;52.052;8.550;2023-05-15T19:11:27;9.30;;;6.97;;
71265;SDS011;59030;52.052;8.550;2023-05-15T19:13:55;11.20;;;8.00;;
71265;SDS011;59030;52.052;8.550;2023-05-15T19:16:24;12.50;;;8.10;;
71265;SDS011;59030;52.052;8.550;2023-05-15T19:18:53;12.97;;;8.37;;
71265;SDS011;59030;52.052;8.550;2023-05-15T19:21:21;13.27;;;8.87;;
71265;SDS011;59030;52.052;8.550;2023-05-15T19:23:49;11.40;;;8.13;;
71265;SDS011;59030;52.052;8.550;2023-05-15T19:26:17;12.43;;;9.00;;
71265;SDS011;59030;52.052;8.550;2023-05-15T19:28:46;13.50;;;9.57;;
71265;SDS011;59030;52.052;8.550;2023-05-15T19:31:17;11.13;;;8.53;;
71265;SDS011;59030;52.052;8.550;2023-05-15T19:33:45;12.43;;;9.00;;
71265;SDS011;59030;52.052;8.550;2023-05-15T19:36:13;10.47;;;8.37;;
71265;SDS011;59030;52.052;8.550;2023-05-15T19:38:41;15.63;;;8.87;;
71265;SDS011;59030;52.052;8.550;2023-05-15T19:41:16;13.30;;;8.77;;
71265;SDS011;59030;52.052;8.550;2023-05-15T19:43:44;13.87;;;8.87;;
71265;SDS011;59030;52.052;8.550;2023-05-15T19:46:14;11.97;;;8.47;;
71265;SDS011;59030;52.052;8.550;2023-05-15T19:48:42;10.07;;;7.83;;
71265;SDS011;59030;52.052;8.550;2023-05-15T19:51:10;12.63;;;8.70;;
71265;SDS011;59030;52.052;8.550;2023-05-15T19:53:38;12.53;;;8.00;;
71265;SDS011;59030;52.052;8.550;2023-05-15T19:56:06;8.70;;;7.13;;
71265;SDS011;59030;52.052;8.550;2023-05-15T19:58:34;10.30;;;8.27;;
71265;SDS011;59030;52.052;8.550;2023-05-15T20:01:02;12.03;;;8.20;;
71265;SDS011;59030;52.052;8.550;2023-05-15T20:03:31;11.00;;;8.07;;
71265;SDS011;59030;52.052;8.550;2023-05-15T20:06:00;13.53;;;8.70;;
71265;SDS011;59030;52.052;8.550;2023-05-15T20:08:29;12.73;;;9.20;;
71265;SDS011;59030;52.052;8.550;2023-05-15T20:11:00;13.10;;;9.10;;
71265;SDS011;59030;52.052;8.550;2023-05-15T20:13:29;12.20;;;8.83;;
71265;SDS011;59030;52.052;8.550;2023-05-15T20:15:57;11.90;;;8.77;;
71265;SDS011;59030;52.052;8.550;2023-05-15T20:18:26;12.43;;;9.20;;
71265;SDS011;59030;52.052;8.550;2023-05-15T20:20:55;12.87;;;9.50;;
71265;SDS011;59030;52.052;8.550;2023-05-15T20:23:23;12.40;;;9.30;;
71265;SDS011;59030;52.052;8.550;2023-05-15T20:25:51;13.13;;;9.50;;
71265;SDS011;59030;52.052;8.550;2023-05-15T20:28:18;11.67;;;8.87;;
71265;SDS011;59030;52.052;8.550;2023-05-15T20:30:49;12.17;;;8.90;;
71265;SDS011;59030;52.052;8.550;2023-05-15T20:33:17;14.03;;;9.57;;
71265;SDS011;59030;52.052;8.550;2023-05-15T20:35:45;10.73;;;8.87;;
71265;SDS011;59030;52.052;8.550;2023-05-15T20:38:13;12.87;;;8.70;;
71265;SDS011;59030;52.052;8.550;2023-05-15T20:40:43;11.17;;;8.50;;
71265;SDS011;59030;52.052;8.550;2023-05-15T20:43:11;12.13;;;8.73;;
71265;SDS011;59030;52.052;8.550;2023-05-15T20:45:38;11.10;;;8.30;;
71265;SDS011;59030;52.052;8.550;2023-05-15T20:48:07;11.50;;;8.63;;
71265;SDS011;59030;52.052;8.550;2023-05-15T20:50:36;11.87;;;8.50;;
71265;SDS011;59030;52.052;8.550;2023-05-15T20:53:03;12.03;;;8.47;;
71265;SDS011;59030;52.052;8.550;2023-05-15T20:55:31;11.20;;;8.27;;
71265;SDS011;59030;52.052;8.550;2023-05-15T20:57:59;11.77;;;8.67;;
71265;SDS011;59030;52.052;8.550;2023-05-15T21:00:27;11.83;;;8.60;;
71265;SDS011;59030;52.052;8.550;2023-05-15T21:02:55;12.37;;;8.43;;
71265;SDS011;59030;52.052;8.550;2023-05-15T21:05:22;12.70;;;8.23;;
71265;SDS011;59030;52.052;8.550;2023-05-15T21:07:50;11.73;;;8.60;;
71265;SDS011;59030;52.052;8.550;2023-05-15T21:10:17;11.53;;;8.47;;
71265;SDS011;59030;52.052;8.550;2023-05-15T21:12:45;12.77;;;9.40;;
71265;SDS011;59030;52.052;8.550;2023-05-15T21:15:13;12.03;;;8.70;;
71265;SDS011;59030;52.052;8.550;2023-05-15T21:17:40;14.53;;;9.00;;
71265;SDS011;59030;52.052;8.550;2023-05-15T21:20:09;12.77;;;9.30;;
71265;SDS011;59030;52.052;8.550;2023-05-15T21:22:37;11.60;;;8.27;;
71265;SDS011;59030;52.052;8.550;2023-05-15T21:25:05;12.90;;;8.47;;
71265;SDS011;59030;52.052;8.550;2023-05-15T21:27:33;14.03;;;8.93;;
71265;SDS011;59030;52.052;8.550;2023-05-15T21:30:01;14.27;;;9.33;;
71265;SDS011;59030;52.052;8.550;2023-05-15T21:32:28;14.23;;;8.97;;
71265;SDS011;59030;52.052;8.550;2023-05-15T21:34:56;12.13;;;8.80;;
71265;SDS011;59030;52.052;8.550;2023-05-15T21:37:23;13.17;;;8.90;;
71265;SDS011;59030;52.052;8.550;2023-05-15T21:39:52;15.53;;;9.37;;
71265;SDS011;59030;52.052;8.550;2023-05-15T21:42:19;14.50;;;9.27;;
71265;SDS011;59030;52.052;8.550;2023-05-15T21:44:47;11.60;;;9.03;;
71265;SDS011;59030;52.052;8.550;2023-05-15T21:47:14;13.37;;;9.13;;
71265;SDS011;59030;52.052;8.550;2023-05-15T21:49:42;13.00;;;8.70;;
71265;SDS011;59030;52.052;8.550;2023-05-15T21:52:09;12.23;;;8.40;;
71265;SDS011;59030;52.052;8.550;2023-05-15T21:54:36;13.33;;;8.63;;
71265;SDS011;59030;52.052;8.550;2023-05-15T21:57:04;11.70;;;8.90;;
71265;SDS011;59030;52.052;8.550;2023-05-15T21:59:31;11.80;;;8.33;;
71265;SDS011;59030;52.052;8.550;2023-05-15T22:01:59;12.13;;;8.53;;
71265;SDS011;59030;52.052;8.550;2023-05-15T22:04:26;12.50;;;8.73;;
71265;SDS011;59030;52.052;8.550;2023-05-15T22:06:57;11.93;;;8.10;;
71265;SDS011;59030;52.052;8.550;2023-05-15T22:09:24;11.10;;;8.40;;
71265;SDS011;59030;52.052;8.550;2023-05-15T22:11:52;12.57;;;9.20;;
71265;SDS011;59030;52.052;8.550;2023-05-15T22:14:19;11.23;;;8.33;;
71265;SDS011;59030;52.052;8.550;2023-05-15T22:16:47;12.00;;;8.63;;
71265;SDS011;59030;52.052;8.550;2023-05-15T22:19:14;13.40;;;8.97;;
71265;SDS011;59030;52.052;8.550;2023-05-15T22:21:42;13.37;;;8.70;;
71265;SDS011;59030;52.052;8.550;2023-05-15T22:24:09;13.87;;;8.90;;
71265;SDS011;59030;52.052;8.550;2023-05-15T22:26:37;13.67;;;9.37;;
71265;SDS011;59030;52.052;8.550;2023-05-15T22:29:04;12.50;;;9.37;;
71265;SDS011;59030;52.052;8.550;2023-05-15T22:31:32;14.97;;;9.13;;
71265;SDS011;59030;52.052;8.550;2023-05-15T22:34:00;12.77;;;9.03;;
71265;SDS011;59030;52.052;8.550;2023-05-15T22:36:28;14.17;;;9.70;;
71265;SDS011;59030;52.052;8.550;2023-05-15T22:38:58;13.77;;;8.93;;
71265;SDS011;59030;52.052;8.550;2023-05-15T22:41:26;13.23;;;9.33;;
71265;SDS011;59030;52.052;8.550;2023-05-15T22:43:54;14.00;;;9.47;;
71265;SDS011;59030;52.052;8.550;2023-05-15T22:46:22;17.50;;;10.27;;
71265;SDS011;59030;52.052;8.550;2023-05-15T22:48:52;13.60;;;9.00;;
71265;SDS011;59030;52.052;8.550;2023-05-15T22:51:20;10.33;;;7.43;;
71265;SDS011;59030;52.052;8.550;2023-05-15T22:53:51;10.00;;;7.27;;
71265;SDS011;59030;52.052;8.550;2023-05-15T22:56:40;8.37;;;6.20;;
71265;SDS011;59030;52.052;8.550;2023-05-15T22:59:39;9.53;;;6.97;;
71265;SDS011;59030;52.052;8.550;2023-05-15T23:02:26;10.13;;;6.73;;
71265;SDS011;59030;52.052;8.550;2023-05-15T23:04:55;9.40;;;6.57;;
71265;SDS011;59030;52.052;8.550;2023-05-15T23:07:26;9.37;;;6.53;;
71265;SDS011;59030;52.052;8.550;2023-05-15T23:12:49;9.83;;;6.77;;
71265;SDS011;59030;52.052;8.550;2023-05-15T23:15:17;10.23;;;7.20;;
71265;SDS011;59030;52.052;8.550;2023-05-15T23:17:44;10.17;;;7.13;;
71265;SDS011;59030;52.052;8.550;2023-05-15T23:20:24;12.50;;;7.57;;
71265;SDS011;59030;52.052;8.550;2023-05-15T23:22:51;8.97;;;6.73;;
71265;SDS011;59030;52.052;8.550;2023-05-15T23:28:47;11.70;;;7.70;;
71265;SDS011;59030;52.052;8.550;2023-05-15T23:31:15;10.00;;;7.33;;
71265;SDS011;59030;52.052;8.550;2023-05-15T23:33:49;11.57;;;7.70;;
71265;SDS011;59030;52.052;8.550;2023-05-15T23:36:20;11.63;;;8.17;;
71265;SDS011;59030;52.052;8.550;2023-05-15T23:38:51;10.37;;;7.33;;
71265;SDS011;59030;52.052;8.550;2023-05-15T23:41:32;12.40;;;7.83;;
71265;SDS011;59030;52.052;8.550;2023-05-15T23:46:52;9.60;;;7.00;;
71265;SDS011;59030;52.052;8.550;2023-05-15T23:49:25;11.30;;;7.50;;
71265;SDS011;59030;52.052;8.550;2023-05-15T23:51:59;9.57;;;6.77;;
71265;SDS011;59030;52.052;8.550;2023-05-15T23:54:27;10.73;;;7.40;;
71265;SDS011;59030;52.052;8.550;2023-05-15T23:56:55;9.23;;;6.80;;
71265;SDS011;59030;52.052;8.550;2023-05-15T23:59:24;9.37;;;7.03;;
